Monterey, VA

6:41 PM EST on January 26, 2015 (GMT -0500)
KVAMONTE3 | Change Station
CLOSE
Current Station
Personal Weather Station
Location: Monterey, VA
Elevation: 2924 ft
Nearby Weather Stations
Active Advisory: Winter Weather Advisory Active Notice: Public Information Statement

Elev 2924 ft 38.41 °N, 79.58 °W | Updated 1 minute ago

Snow
Snow
29.1 °F
Feels Like 25 °F
N
4.0
Wind Variable Wind from NNE
Gusts 4.0 mph

Today
High -- | Low -- °F
--% Chance of Precip.
Yesterday
High -- | Low -- °F
Precip. -- in
7:28 AM 5:33 PM
Waxing Crescent, 48% visible
Pressure 29.56 in
Visibility 0.2 miles
Clouds Overcast 200 ft
Windchill 25 °F
Dew Point 27 °F
Humidity 91%
Rainfall 0.00 in
Snow Depth Not available.
UV 0 out of 12
Pollen .10 out of 12
Air Quality Not available.
Flu Activity Not available.
METAR KHSP 262315Z AUTO 29015G19KT M1/4SM -SN OVC002 M02/M02 A2956 RMK AO2 T10211021

More Conditions Fewer Conditions

Pressure 29.56 in
Visibility 0.2 miles
Clouds Overcast 200 ft
Windchill 25 °F
Dew Point 27 °F
Humidity 91%
Rainfall 0.00 in
Snow Depth Not available.
UV 0 out of 12
Pollen .10 out of 12
Air Quality Not available.
Flu Activity Not available.
METAR KHSP 262315Z AUTO 29015G19KT M1/4SM -SN OVC002 M02/M02 A2956 RMK AO2 T10211021

More Conditions Fewer Conditions

10-Day Weather Forecast

Almanac

Astronomy

Jan. 26, 2015 Rise Set
Actual Time
Civil Twilight
Nautical Twilight
Astronomical Twilight
Moon
Length of Visible Light
Length of Day
Tomorrow will be .
, % of the Moon is Illuminated

Today's Extremes

State Highs State Lows

Community

WunderPhotos

Upload Photos

1,790,408 photos uploaded!

WunderBlogs® & News

Nearby

Air Quality

  Air Quality AQ Index Pollutant
Not available.

Snow Depth

Station Depth Elevation

Earthquake Activity

City Distance Mag. Time & Date
Minimum magnitude displayed is 2.5.

Coastal Water Temperatures

Place Temperature

Nearby Weather Stations